createdAt,value
2023-02-01T00:00:01.861Z,5.3
2023-02-01T00:05:01.864Z,5.28
2023-02-01T00:10:01.734Z,5.22
2023-02-01T00:15:03.025Z,5.21
2023-02-01T00:20:02.389Z,5.08
2023-02-01T00:25:01.693Z,5.06
2023-02-01T00:30:02.337Z,5.22
2023-02-01T00:35:01.783Z,5.22
2023-02-01T00:40:01.486Z,5.19
2023-02-01T00:45:02.047Z,5.23
2023-02-01T00:50:01.694Z,5.25
2023-02-01T00:55:01.553Z,5.18
2023-02-01T01:00:01.397Z,5.25
2023-02-01T01:05:01.486Z,5.27
2023-02-01T01:10:01.497Z,5.3
2023-02-01T01:15:02.364Z,5.27
2023-02-01T01:20:01.816Z,5.31
2023-02-01T01:25:01.554Z,5.27
2023-02-01T01:30:02.189Z,5.25
2023-02-01T01:35:01.774Z,5.27
2023-02-01T01:40:01.600Z,5.27
2023-02-01T01:45:01.607Z,5.26
2023-02-01T01:50:02.165Z,5.28
2023-02-01T01:55:01.727Z,5.26
2023-02-01T02:00:01.398Z,5.25
2023-02-01T02:05:01.703Z,5.22
2023-02-01T02:10:01.941Z,5.28
2023-02-01T02:15:01.762Z,5.28
2023-02-01T02:20:02.026Z,5.26
2023-02-01T02:25:01.907Z,5.24
2023-02-01T02:30:02.368Z,5.28
2023-02-01T02:35:01.880Z,5.28
2023-02-01T02:40:01.488Z,5.3
2023-02-01T02:45:02.277Z,5.28
2023-02-01T02:50:01.905Z,5.31
2023-02-01T02:55:02.172Z,5.34
2023-02-01T03:00:01.563Z,5.31
2023-02-01T03:05:01.369Z,5.31
2023-02-01T03:10:01.933Z,5.31
2023-02-01T03:15:01.513Z,5.35
2023-02-01T03:20:01.635Z,5.35
2023-02-01T03:25:02.411Z,5.34
2023-02-01T03:30:02.283Z,5.33
2023-02-01T03:35:01.804Z,5.32
2023-02-01T03:40:01.340Z,5.27
2023-02-01T03:45:01.373Z,5.24
2023-02-01T03:50:01.351Z,5.28
2023-02-01T03:55:01.370Z,5.35
2023-02-01T04:00:02.261Z,5.52
2023-02-01T04:05:01.483Z,5.6
2023-02-01T04:10:02.128Z,5.57
2023-02-01T04:15:01.391Z,5.63
2023-02-01T04:20:02.071Z,5.6
2023-02-01T04:25:02.158Z,5.53
2023-02-01T04:30:01.814Z,5.49
2023-02-01T04:35:02.016Z,5.39
2023-02-01T04:40:01.303Z,5.23
2023-02-01T04:45:01.711Z,5.15
2023-02-01T04:50:01.862Z,5.12
2023-02-01T04:55:02.148Z,5.12
2023-02-01T05:00:01.806Z,5.01
2023-02-01T05:05:01.608Z,4.98
2023-02-01T05:10:01.974Z,5.02
2023-02-01T05:15:01.450Z,4.94
2023-02-01T05:20:02.277Z,4.81
2023-02-01T05:25:01.316Z,4.79
2023-02-01T05:30:02.253Z,4.67
2023-02-01T05:35:02.127Z,4.61
2023-02-01T05:40:01.712Z,4.63
2023-02-01T05:45:01.984Z,4.6
2023-02-01T05:50:02.253Z,4.56
2023-02-01T05:55:02.250Z,4.46
2023-02-01T06:00:01.391Z,4.42
2023-02-01T06:05:02.092Z,4.37
2023-02-01T06:10:01.343Z,4.35
2023-02-01T06:15:01.762Z,4.3
2023-02-01T06:20:01.570Z,4.3
2023-02-01T06:25:01.990Z,4.26
2023-02-01T06:30:02.088Z,4.24
2023-02-01T06:35:02.156Z,4.2
2023-02-01T06:40:01.336Z,4.23
2023-02-01T06:45:01.786Z,4.32
2023-02-01T06:50:01.888Z,4.33
2023-02-01T06:55:01.969Z,4.35
2023-02-01T07:00:02.239Z,4.42
2023-02-01T07:05:01.409Z,4.41
2023-02-01T07:10:02.135Z,4.39
2023-02-01T07:15:01.396Z,4.5
2023-02-01T07:20:01.678Z,4.43
2023-02-01T07:25:01.989Z,4.45
2023-02-01T07:30:01.994Z,4.38
2023-02-01T07:35:01.987Z,4.49
2023-02-01T07:40:01.995Z,4.52
2023-02-01T07:45:14.637Z,4.58
2023-02-01T07:50:01.295Z,4.56
2023-02-01T07:55:01.705Z,4.56
2023-02-01T08:00:01.930Z,4.66
2023-02-01T08:05:01.616Z,4.77
2023-02-01T08:10:01.590Z,4.9
2023-02-01T08:15:02.028Z,5.01
2023-02-01T08:20:01.399Z,5.02
2023-02-01T08:25:01.910Z,5.05
2023-02-01T08:30:01.374Z,5.07
2023-02-01T08:35:02.264Z,5.15
2023-02-01T08:40:01.482Z,5.11
2023-02-01T08:45:01.981Z,5.22
2023-02-01T08:50:01.414Z,5.37
2023-02-01T08:55:01.612Z,5.41
2023-02-01T09:00:01.945Z,5.48
2023-02-01T09:05:02.242Z,5.5
2023-02-01T09:10:02.132Z,5.53
2023-02-01T09:15:02.353Z,5.56
2023-02-01T09:20:01.616Z,5.59
2023-02-01T09:25:02.153Z,5.6
2023-02-01T09:30:01.656Z,5.68
2023-02-01T09:35:01.922Z,5.77
2023-02-01T09:40:02.355Z,5.81
2023-02-01T09:45:01.688Z,5.74
2023-02-01T09:50:01.360Z,5.77
2023-02-01T09:55:01.875Z,5.78
2023-02-01T10:00:02.238Z,5.82
2023-02-01T10:05:02.182Z,5.92
2023-02-01T10:10:01.960Z,6.04
2023-02-01T10:15:02.129Z,6.14
2023-02-01T10:20:01.712Z,6.16
2023-02-01T10:25:02.091Z,6.14
2023-02-01T10:30:02.242Z,6.12
2023-02-01T10:35:02.068Z,6.17
2023-02-01T10:40:01.458Z,6.23
2023-02-01T10:45:02.080Z,6.31
2023-02-01T10:50:01.469Z,6.42
2023-02-01T10:55:02.256Z,6.76
2023-02-01T11:00:01.588Z,6.84
2023-02-01T11:05:01.714Z,6.76
2023-02-01T11:10:01.379Z,6.88
2023-02-01T11:15:02.256Z,6.85
2023-02-01T11:20:02.018Z,7.07
2023-02-01T11:25:02.190Z,7.15
2023-02-01T11:30:01.446Z,6.97
2023-02-01T11:35:01.813Z,6.9
2023-02-01T11:40:01.308Z,6.87
2023-02-01T11:45:01.933Z,7.03
2023-02-01T11:50:02.374Z,6.99
2023-02-01T11:55:01.956Z,7.04
2023-02-01T12:00:02.312Z,7.12
2023-02-01T12:05:01.954Z,7.04
2023-02-01T12:10:02.302Z,7.01
2023-02-01T12:15:01.719Z,6.99
2023-02-01T12:20:02.081Z,6.91
2023-02-01T12:25:01.673Z,6.85
2023-02-01T12:30:01.778Z,6.84
2023-02-01T12:35:01.604Z,6.86
2023-02-01T12:40:02.071Z,6.79
2023-02-01T12:45:01.833Z,6.82
2023-02-01T12:50:01.891Z,6.91
2023-02-01T12:55:01.440Z,6.94
2023-02-01T13:00:02.149Z,6.94
2023-02-01T13:05:01.831Z,6.95
2023-02-01T13:10:01.916Z,7.03
2023-02-01T13:15:01.849Z,7.11
2023-02-01T13:20:01.661Z,7.08
2023-02-01T13:25:02.016Z,7.11
2023-02-01T13:30:01.502Z,7.1
2023-02-01T13:35:01.705Z,7.04
2023-02-01T13:40:01.406Z,7
2023-02-01T13:45:01.981Z,6.97
2023-02-01T13:50:01.485Z,6.91
2023-02-01T13:55:01.420Z,6.75
2023-02-01T14:00:02.249Z,6.59
2023-02-01T14:05:01.725Z,6.63
2023-02-01T14:10:01.464Z,6.66
2023-02-01T14:15:02.373Z,6.7
2023-02-01T14:20:01.805Z,6.81
2023-02-01T14:25:01.345Z,6.81
2023-02-01T14:30:02.319Z,6.84
2023-02-01T14:35:01.997Z,6.88
2023-02-01T14:40:01.539Z,6.91
2023-02-01T14:45:02.321Z,7
2023-02-01T14:50:01.531Z,7.08
2023-02-01T14:55:02.021Z,7.12
2023-02-01T15:00:02.147Z,7.13
2023-02-01T15:05:01.493Z,7.14
2023-02-01T15:10:02.081Z,7.1
2023-02-01T15:15:01.723Z,7.12
2023-02-01T15:20:02.149Z,7.23
2023-02-01T15:25:01.531Z,7.15
2023-02-01T15:30:02.102Z,7.19
2023-02-01T15:35:01.335Z,7.2
2023-02-01T15:40:01.922Z,7.2
2023-02-01T15:45:01.319Z,7.17
2023-02-01T15:50:02.187Z,7.12
2023-02-01T15:55:01.393Z,7.07
2023-02-01T16:00:01.824Z,7.01
2023-02-01T16:05:02.243Z,6.85
2023-02-01T16:10:01.982Z,6.7
2023-02-01T16:15:01.453Z,6.54
2023-02-01T16:20:02.168Z,6.29
2023-02-01T16:25:01.559Z,6.16
2023-02-01T16:30:01.432Z,5.99
2023-02-01T16:35:01.631Z,5.9
2023-02-01T16:40:01.927Z,5.9
2023-02-01T16:45:02.004Z,5.78
2023-02-01T16:50:04.241Z,5.78
2023-02-01T16:55:02.001Z,5.75
2023-02-01T17:00:02.872Z,5.7
2023-02-01T17:05:02.126Z,5.53
2023-02-01T17:10:02.037Z,5.6
2023-02-01T17:15:01.500Z,5.53
2023-02-01T17:20:02.112Z,5.53
2023-02-01T17:25:01.417Z,5.51
2023-02-01T17:30:02.062Z,5.47
2023-02-01T17:35:01.318Z,5.49
2023-02-01T17:40:02.045Z,5.43
2023-02-01T17:45:02.280Z,5.42
2023-02-01T17:50:01.449Z,5.39
2023-02-01T17:55:02.034Z,5.35
2023-02-01T18:00:02.170Z,5.4
2023-02-01T18:05:01.359Z,5.4
2023-02-01T18:10:02.089Z,5.4
2023-02-01T18:15:01.424Z,5.31
2023-02-01T18:20:01.328Z,5.33
2023-02-01T18:25:01.747Z,5.39
2023-02-01T18:30:01.951Z,5.57
2023-02-01T18:35:02.299Z,5.47
2023-02-01T18:40:01.714Z,5.5
2023-02-01T18:45:02.219Z,5.53
2023-02-01T18:50:01.570Z,5.59
2023-02-01T18:55:02.075Z,5.62
2023-02-01T19:00:01.432Z,5.66
2023-02-01T19:05:01.886Z,5.7
2023-02-01T19:10:02.226Z,5.75
2023-02-01T19:15:01.404Z,5.83
2023-02-01T19:20:01.881Z,5.75
2023-02-01T19:25:02.142Z,5.75
2023-02-01T19:30:01.361Z,5.84
2023-02-01T19:35:01.794Z,5.9
2023-02-01T19:40:02.196Z,5.86
2023-02-01T19:45:01.370Z,5.92
2023-02-01T19:50:01.746Z,5.96
2023-02-01T19:55:02.032Z,6.06
2023-02-01T20:00:01.558Z,6.16
2023-02-01T20:05:01.278Z,6.14
2023-02-01T20:10:01.027Z,6.2
2023-02-01T20:15:01.129Z,6.19
2023-02-01T20:20:00.801Z,6.19
2023-02-01T20:25:01.044Z,6.27
2023-02-01T20:30:02.112Z,6.38
2023-02-01T20:35:02.183Z,6.41
2023-02-01T20:40:01.390Z,6.43
2023-02-01T20:45:02.341Z,6.46
2023-02-01T20:50:02.141Z,6.49
2023-02-01T20:55:01.913Z,6.46
2023-02-01T21:00:01.482Z,6.48
2023-02-01T21:05:02.045Z,6.48
2023-02-01T21:10:02.103Z,6.55
2023-02-01T21:15:02.073Z,6.54
2023-02-01T21:20:02.071Z,6.61
2023-02-01T21:25:02.306Z,6.65
2023-02-01T21:30:01.443Z,6.71
2023-02-01T21:35:01.647Z,6.69
2023-02-01T21:40:02.187Z,6.69
2023-02-01T21:45:01.728Z,6.7
2023-02-01T21:50:01.544Z,6.79
2023-02-01T21:55:01.326Z,6.74
2023-02-01T22:00:01.715Z,6.76
2023-02-01T22:05:02.197Z,6.79
2023-02-01T22:10:01.544Z,6.79
2023-02-01T22:15:01.982Z,6.84
2023-02-01T22:20:02.275Z,6.84
2023-02-01T22:25:01.537Z,6.87
2023-02-01T22:30:02.059Z,6.84
2023-02-01T22:35:01.704Z,6.89
2023-02-01T22:40:02.086Z,6.95
2023-02-01T22:45:02.195Z,6.94
2023-02-01T22:50:01.577Z,7
2023-02-01T22:55:02.001Z,6.87
2023-02-01T23:00:01.836Z,6.88
2023-02-01T23:05:01.745Z,6.85
2023-02-01T23:10:01.752Z,6.87
2023-02-01T23:15:02.347Z,6.89
2023-02-01T23:20:02.316Z,6.89
2023-02-01T23:25:02.637Z,6.93
2023-02-01T23:30:02.635Z,6.93
2023-02-01T23:35:02.578Z,6.88
2023-02-01T23:40:02.634Z,6.85
2023-02-01T23:45:01.826Z,6.9
2023-02-01T23:50:01.856Z,6.95
2023-02-01T23:55:02.303Z,6.93
